createdAt,value
2019-04-05T00:06:05.914Z,29.72
2019-04-05T00:16:11.760Z,29.52
2019-04-05T00:26:17.190Z,28.92
2019-04-05T00:36:22.727Z,28.00
2019-04-05T00:46:28.020Z,28.75
2019-04-05T00:56:33.675Z,28.62
2019-04-05T01:06:39.084Z,30.02
2019-04-05T01:16:44.532Z,28.67
2019-04-05T01:26:50.699Z,28.98
2019-04-05T01:36:56.149Z,27.77
2019-04-05T01:47:01.705Z,28.10
2019-04-05T01:57:07.015Z,28.50
2019-04-05T02:07:12.345Z,28.15
2019-04-05T02:17:17.757Z,28.23
2019-04-05T02:27:23.364Z,26.07
2019-04-05T02:37:28.638Z,28.17
2019-04-05T02:47:34.018Z,29.55
2019-04-05T02:57:40.156Z,27.70
2019-04-05T03:07:45.747Z,28.80
2019-04-05T03:17:51.212Z,27.20
2019-04-05T03:27:56.627Z,28.10
2019-04-05T03:38:02.843Z,28.07
2019-04-05T03:48:08.930Z,27.50
2019-04-05T03:58:14.369Z,29.23
2019-04-05T04:08:23.253Z,29.75
2019-04-05T04:18:27.600Z,29.65
2019-04-05T04:28:33.724Z,29.45
2019-04-05T04:38:39.424Z,29.57
2019-04-05T04:48:45.292Z,30.08
2019-04-05T04:58:50.660Z,30.77
2019-04-05T05:08:56.532Z,31.12
2019-04-05T05:19:02.024Z,30.80
2019-04-05T05:29:07.632Z,30.17
2019-04-05T05:39:13.081Z,28.98
2019-04-05T05:49:18.460Z,31.75
2019-04-05T05:59:24.063Z,30.92
2019-04-05T06:09:29.356Z,30.52
2019-04-05T06:19:34.703Z,34.18
2019-04-05T06:29:40.058Z,34.78
2019-04-05T06:39:45.337Z,34.45
2019-04-05T06:49:50.671Z,34.20
2019-04-05T06:59:55.985Z,36.60
2019-04-05T07:10:01.989Z,35.20
2019-04-05T07:20:07.914Z,35.28
2019-04-05T07:30:13.787Z,32.88
2019-04-05T07:40:19.356Z,30.82
2019-04-05T07:50:24.661Z,30.52
2019-04-05T08:00:50.615Z,28.65
2019-04-05T08:11:15.824Z,29.15
2019-04-05T08:21:38.493Z,29.60
2019-04-05T08:32:13.861Z,28.83
2019-04-05T08:42:26.824Z,28.05
2019-04-05T08:52:50.368Z,29.75
2019-04-05T09:03:14.217Z,28.20
2019-04-05T09:13:37.457Z,30.90
2019-04-05T09:24:00.038Z,31.15
2019-04-05T09:34:23.532Z,37.48
2019-04-05T09:44:46.465Z,35.78
2019-04-05T09:55:09.565Z,36.73
2019-04-05T10:05:32.775Z,53.35
2019-04-05T10:15:55.933Z,45.88
2019-04-05T10:26:19.384Z,48.95
2019-04-05T10:36:42.581Z,48.33
2019-04-05T10:47:05.937Z,43.75
2019-04-05T10:57:28.944Z,46.02
2019-04-05T11:07:52.403Z,42.43
2019-04-05T11:18:15.823Z,42.00
2019-04-05T11:28:39.092Z,39.63
2019-04-05T11:39:05.359Z,39.58
2019-04-05T11:49:30.056Z,37.85
2019-04-05T11:59:53.044Z,36.40
2019-04-05T12:10:18.747Z,36.33
2019-04-05T12:20:49.447Z,34.70
2019-04-05T12:31:06.409Z,32.67
2019-04-05T12:41:29.691Z,33.35
2019-04-05T12:51:53.005Z,34.08
2019-04-05T13:02:20.630Z,32.90
2019-04-05T13:12:42.560Z,33.50
2019-04-05T13:23:06.697Z,31.05
2019-04-05T13:33:30.656Z,32.08
2019-04-05T13:43:54.172Z,31.95
2019-04-05T13:54:17.357Z,30.12
2019-04-05T14:04:40.776Z,31.55
2019-04-05T14:15:03.889Z,31.05
2019-04-05T14:25:29.971Z,31.17
2019-04-05T14:35:52.557Z,30.77
2019-04-05T14:46:15.949Z,30.52
2019-04-05T14:56:39.092Z,31.30
2019-04-05T15:07:02.193Z,30.62
2019-04-05T15:17:24.780Z,30.27
2019-04-05T15:27:51.326Z,30.00
2019-04-05T15:38:12.664Z,30.60
2019-04-05T15:48:36.244Z,31.33
2019-04-05T15:59:01.507Z,29.20
2019-04-05T16:09:25.005Z,32.28
2019-04-05T16:19:48.097Z,30.75
2019-04-05T16:30:11.498Z,30.20
2019-04-05T16:40:34.491Z,28.85
2019-04-05T16:50:57.792Z,29.70
2019-04-05T17:01:26.984Z,30.75
2019-04-05T17:11:45.736Z,29.20
2019-04-05T17:22:09.118Z,30.57
2019-04-05T17:32:32.500Z,30.20
2019-04-05T17:42:55.532Z,31.52
2019-04-05T17:53:18.731Z,30.40
2019-04-05T18:03:41.787Z,30.55
2019-04-05T18:14:04.826Z,30.60
2019-04-05T18:24:28.242Z,28.77
2019-04-05T18:34:50.854Z,29.60
2019-04-05T18:45:13.916Z,30.88
2019-04-05T18:55:36.587Z,31.07
2019-04-05T19:06:00.118Z,32.98
2019-04-05T19:16:23.447Z,34.48
2019-04-05T19:26:47.366Z,33.53
2019-04-05T19:58:00.140Z,37.25
2019-04-05T20:08:23.445Z,34.48
2019-04-05T20:18:46.260Z,34.53
2019-04-05T20:29:09.373Z,35.75
2019-04-05T20:39:32.598Z,35.35
2019-04-05T20:49:55.661Z,35.60
2019-04-05T21:00:18.984Z,31.65
2019-04-05T21:10:42.232Z,34.43
2019-04-05T21:21:05.813Z,32.55
2019-04-05T21:31:28.260Z,34.73
2019-04-05T21:41:51.553Z,31.87
2019-04-05T21:52:15.130Z,32.63
2019-04-05T22:02:38.543Z,31.95
2019-04-05T22:13:04.483Z,33.05
2019-04-05T22:23:28.227Z,31.77
2019-04-05T22:33:52.097Z,30.40
2019-04-05T22:44:15.285Z,29.65
2019-04-05T22:54:38.772Z,31.52
2019-04-05T23:05:02.026Z,30.57
2019-04-05T23:15:25.661Z,31.82
2019-04-05T23:25:49.391Z,30.70
2019-04-05T23:36:12.372Z,29.02
2019-04-05T23:46:35.576Z,29.40
2019-04-05T23:56:58.805Z,29.60
